createdAt,value
2023-02-05T00:01:37.325Z,10.27
2023-02-05T00:04:04.690Z,7.87
2023-02-05T00:06:32.357Z,8.13
2023-02-05T00:08:59.731Z,7.37
2023-02-05T00:11:27.025Z,7.63
2023-02-05T00:13:54.791Z,7.90
2023-02-05T00:16:24.839Z,10.40
2023-02-05T00:22:03.707Z,16.27
2023-02-05T00:24:30.841Z,10.43
2023-02-05T00:26:58.015Z,7.80
2023-02-05T00:29:25.254Z,8.77
2023-02-05T00:31:53.024Z,10.03
2023-02-05T00:34:20.308Z,8.40
2023-02-05T00:36:47.574Z,8.33
2023-02-05T00:39:15.982Z,10.60
2023-02-05T00:41:43.160Z,11.20
2023-02-05T00:44:10.364Z,10.70
2023-02-05T00:46:37.759Z,11.07
2023-02-05T00:49:04.967Z,7.47
2023-02-05T00:51:32.390Z,8.30
2023-02-05T00:53:59.640Z,7.83
2023-02-05T00:56:26.977Z,7.57
2023-02-05T00:58:54.677Z,6.70
2023-02-05T01:01:21.922Z,7.60
2023-02-05T01:03:49.188Z,7.73
2023-02-05T01:06:16.497Z,7.50
2023-02-05T01:08:43.743Z,8.97
2023-02-05T01:11:11.333Z,7.07
2023-02-05T01:13:39.749Z,6.63
2023-02-05T01:16:07.467Z,8.03
2023-02-05T01:18:34.709Z,7.23
2023-02-05T01:21:01.868Z,8.60
2023-02-05T01:23:29.227Z,6.83
2023-02-05T01:25:56.741Z,9.90
2023-02-05T01:28:24.193Z,9.37
2023-02-05T01:30:51.755Z,7.70
2023-02-05T01:33:19.380Z,9.00
2023-02-05T01:35:47.069Z,6.87
2023-02-05T01:38:14.960Z,7.20
2023-02-05T01:40:43.385Z,8.37
2023-02-05T01:43:13.579Z,7.10
2023-02-05T01:45:50.810Z,7.00
2023-02-05T01:48:23.761Z,6.30
2023-02-05T01:50:57.038Z,6.77
2023-02-05T01:53:32.135Z,7.40
2023-02-05T01:56:08.466Z,7.23
2023-02-05T01:58:42.598Z,7.07
2023-02-05T02:01:10.047Z,8.00
2023-02-05T02:03:38.583Z,10.10
2023-02-05T02:06:06.252Z,7.77
2023-02-05T02:08:33.839Z,8.13
2023-02-05T02:11:04.715Z,7.97
2023-02-05T02:13:33.875Z,8.87
2023-02-05T02:16:06.356Z,9.43
2023-02-05T02:18:36.416Z,8.80
2023-02-05T02:21:30.978Z,9.47
2023-02-05T02:24:09.740Z,8.40
2023-02-05T02:26:58.982Z,8.67
2023-02-05T02:30:14.129Z,8.93
2023-02-05T02:32:58.805Z,9.23
2023-02-05T02:35:44.904Z,7.87
2023-02-05T02:38:28.486Z,8.90
2023-02-05T02:41:13.668Z,9.03
2023-02-05T02:44:03.207Z,8.70
2023-02-05T02:46:40.202Z,7.83
2023-02-05T02:49:17.270Z,8.00
2023-02-05T02:51:45.854Z,7.80
2023-02-05T02:54:17.493Z,8.17
2023-02-05T02:56:47.470Z,7.73
2023-02-05T02:59:19.539Z,7.93
2023-02-05T03:01:54.016Z,7.83
2023-02-05T03:04:26.198Z,8.63
2023-02-05T03:06:57.999Z,9.47
2023-02-05T03:09:34.771Z,8.23
2023-02-05T03:12:02.817Z,8.47
2023-02-05T03:14:31.038Z,8.47
2023-02-05T03:17:00.545Z,9.10
2023-02-05T03:19:30.231Z,9.07
2023-02-05T03:22:03.099Z,9.47
2023-02-05T03:24:33.496Z,8.93
2023-02-05T03:27:00.911Z,8.60
2023-02-05T03:29:31.840Z,9.53
2023-02-05T03:32:23.435Z,10.00
2023-02-05T03:35:13.999Z,8.47
2023-02-05T03:38:20.681Z,8.60
2023-02-05T03:41:00.389Z,8.73
2023-02-05T03:43:59.066Z,7.83
2023-02-05T03:46:58.394Z,7.77
2023-02-05T03:49:44.419Z,7.37
2023-02-05T03:52:22.631Z,6.90
2023-02-05T03:55:21.211Z,7.00
2023-02-05T03:58:15.231Z,9.17
2023-02-05T04:00:43.425Z,7.03
2023-02-05T04:03:13.729Z,6.20
2023-02-05T04:05:41.649Z,5.13
2023-02-05T04:08:10.320Z,6.30
2023-02-05T04:10:44.005Z,6.57
2023-02-05T04:13:13.636Z,6.50
2023-02-05T04:15:41.732Z,6.03
2023-02-05T04:18:11.484Z,5.73
2023-02-05T04:20:38.917Z,5.30
2023-02-05T04:23:08.547Z,5.80
2023-02-05T04:25:38.273Z,6.40
2023-02-05T04:28:07.253Z,6.00
2023-02-05T04:30:35.011Z,6.93
2023-02-05T04:33:03.681Z,5.67
2023-02-05T04:35:32.451Z,6.00
2023-02-05T04:38:00.061Z,5.93
2023-02-05T04:40:27.509Z,6.17
2023-02-05T04:42:54.718Z,6.00
2023-02-05T04:45:22.712Z,5.30
2023-02-05T04:47:50.009Z,5.17
2023-02-05T04:50:18.309Z,5.37
2023-02-05T04:52:45.722Z,5.63
2023-02-05T04:55:12.959Z,5.40
2023-02-05T04:57:40.399Z,6.17
2023-02-05T05:00:08.526Z,5.40
2023-02-05T05:02:35.762Z,5.10
2023-02-05T05:05:03.076Z,5.70
2023-02-05T05:07:31.150Z,6.00
2023-02-05T05:09:58.580Z,5.93
2023-02-05T05:12:25.817Z,5.93
2023-02-05T05:14:53.054Z,6.40
2023-02-05T05:17:20.293Z,6.27
2023-02-05T05:19:47.529Z,5.60
2023-02-05T05:22:14.756Z,5.47
2023-02-05T05:24:41.931Z,5.37
2023-02-05T05:27:09.114Z,5.20
2023-02-05T05:29:37.010Z,5.40
2023-02-05T05:32:04.838Z,5.70
2023-02-05T05:34:33.176Z,5.03
2023-02-05T05:37:00.417Z,5.43
2023-02-05T05:39:46.140Z,5.77
2023-02-05T05:42:32.037Z,6.93
2023-02-05T05:44:59.226Z,6.80
2023-02-05T05:47:26.392Z,6.00
2023-02-05T05:49:53.600Z,5.63
2023-02-05T05:52:20.786Z,6.47
2023-02-05T05:54:47.946Z,5.93
2023-02-05T05:57:15.123Z,5.47
2023-02-05T05:59:42.260Z,5.63
2023-02-05T06:02:09.467Z,7.43
2023-02-05T06:04:36.704Z,7.13
2023-02-05T06:07:04.415Z,6.03
2023-02-05T06:09:31.583Z,6.50
2023-02-05T06:11:58.737Z,5.63
2023-02-05T06:14:25.975Z,5.93
2023-02-05T06:16:55.160Z,5.93
2023-02-05T06:19:23.257Z,6.60
2023-02-05T06:21:50.483Z,6.20
2023-02-05T06:24:17.970Z,5.40
2023-02-05T06:26:45.186Z,5.63
2023-02-05T06:29:12.447Z,6.27
2023-02-05T06:31:39.771Z,6.17
2023-02-05T06:34:07.080Z,6.67
2023-02-05T06:36:34.280Z,5.90
2023-02-05T06:39:01.538Z,6.07
2023-02-05T06:41:28.724Z,5.57
2023-02-05T06:43:55.977Z,5.57
2023-02-05T06:46:23.413Z,5.63
2023-02-05T06:48:50.660Z,6.37
2023-02-05T06:51:17.869Z,6.37
2023-02-05T06:53:45.281Z,5.73
2023-02-05T06:56:12.445Z,6.63
2023-02-05T06:58:39.841Z,6.23
2023-02-05T07:01:07.113Z,6.20
2023-02-05T07:03:34.552Z,6.40
2023-02-05T07:06:06.089Z,6.50
2023-02-05T07:08:34.292Z,6.60
2023-02-05T07:11:02.031Z,7.00
2023-02-05T07:13:30.073Z,6.37
2023-02-05T07:15:57.465Z,7.03
2023-02-05T07:18:24.678Z,6.03
2023-02-05T07:20:51.896Z,6.33
2023-02-05T07:23:19.058Z,6.40
2023-02-05T07:25:46.292Z,6.57
2023-02-05T07:28:13.504Z,6.97
2023-02-05T07:30:40.780Z,6.00
2023-02-05T07:33:08.105Z,5.97
2023-02-05T07:35:38.352Z,6.57
2023-02-05T07:38:06.318Z,7.00
2023-02-05T07:40:36.839Z,8.40
2023-02-05T07:43:04.256Z,7.67
2023-02-05T07:45:31.807Z,7.20
2023-02-05T07:47:59.261Z,8.47
2023-02-05T07:50:26.532Z,7.63
2023-02-05T07:52:53.824Z,8.50
2023-02-05T07:55:21.053Z,7.50
2023-02-05T07:57:48.353Z,6.83
2023-02-05T08:00:15.669Z,8.40
2023-02-05T08:02:42.862Z,7.63
2023-02-05T08:05:10.210Z,6.50
2023-02-05T08:07:38.415Z,6.10
2023-02-05T08:10:07.832Z,6.27
2023-02-05T08:12:35.340Z,6.30
2023-02-05T08:15:02.643Z,6.13
2023-02-05T08:17:30.071Z,6.93
2023-02-05T08:19:57.309Z,7.37
2023-02-05T08:22:24.527Z,6.53
2023-02-05T08:24:51.770Z,6.50
2023-02-05T08:27:19.010Z,6.40
2023-02-05T08:29:48.954Z,6.87
2023-02-05T08:32:16.230Z,7.93
2023-02-05T08:34:43.512Z,6.33
2023-02-05T08:37:11.454Z,6.50
2023-02-05T08:39:38.957Z,6.83
2023-02-05T08:42:06.199Z,6.57
2023-02-05T08:44:34.261Z,6.90
2023-02-05T08:47:01.715Z,6.87
2023-02-05T08:49:29.215Z,6.20
2023-02-05T08:51:56.764Z,7.73
2023-02-05T08:54:24.472Z,8.17
2023-02-05T08:56:53.310Z,6.90
2023-02-05T08:59:21.153Z,6.37
2023-02-05T09:01:48.696Z,6.67
2023-02-05T09:04:22.030Z,7.30
2023-02-05T09:06:49.942Z,6.87
2023-02-05T09:09:17.574Z,8.83
2023-02-05T09:11:47.143Z,8.03
2023-02-05T09:14:14.605Z,7.30
2023-02-05T09:16:42.208Z,9.70
2023-02-05T09:19:09.878Z,6.57
2023-02-05T09:21:37.012Z,7.53
2023-02-05T09:24:04.527Z,7.37
2023-02-05T09:26:31.698Z,7.00
2023-02-05T09:28:58.877Z,7.43
2023-02-05T09:31:26.149Z,7.00
2023-02-05T09:33:55.599Z,6.83
2023-02-05T09:36:23.762Z,8.97
2023-02-05T09:39:01.910Z,6.80
2023-02-05T09:42:09.396Z,8.27
2023-02-05T09:45:09.545Z,9.47
2023-02-05T09:48:10.636Z,7.90
2023-02-05T09:50:39.222Z,10.97
2023-02-05T09:53:16.534Z,7.60
2023-02-05T09:55:45.038Z,8.90
2023-02-05T09:58:17.002Z,7.67
2023-02-05T10:00:46.970Z,8.47
2023-02-05T10:03:37.366Z,6.40
2023-02-05T10:06:11.131Z,6.87
2023-02-05T10:09:04.067Z,5.93
2023-02-05T10:11:40.453Z,5.63
2023-02-05T10:14:15.231Z,5.03
2023-02-05T10:16:49.977Z,5.37
2023-02-05T10:19:35.290Z,5.37
2023-02-05T10:22:27.371Z,4.80
2023-02-05T10:25:23.476Z,6.47
2023-02-05T10:28:01.027Z,6.53
2023-02-05T10:30:40.920Z,7.17
2023-02-05T10:33:19.217Z,6.47
2023-02-05T10:35:56.189Z,5.93
2023-02-05T10:38:25.577Z,5.53
2023-02-05T10:41:01.130Z,6.40
2023-02-05T10:43:44.794Z,5.57
2023-02-05T10:46:16.803Z,6.47
2023-02-05T10:48:58.699Z,7.03
2023-02-05T10:51:44.196Z,6.53
2023-02-05T10:54:33.649Z,6.53
2023-02-05T10:57:01.744Z,5.03
2023-02-05T10:59:32.287Z,5.57
2023-02-05T11:02:07.138Z,13.23
2023-02-05T11:04:41.139Z,5.80
2023-02-05T11:07:14.045Z,5.43
2023-02-05T11:09:41.252Z,6.43
2023-02-05T11:12:32.473Z,10.87
2023-02-05T11:15:02.104Z,6.23
2023-02-05T11:17:36.373Z,5.37
2023-02-05T11:20:14.049Z,8.37
2023-02-05T11:22:41.365Z,5.57
2023-02-05T11:25:15.537Z,6.57
2023-02-05T11:27:54.274Z,6.53
2023-02-05T11:30:49.985Z,5.57
2023-02-05T11:33:29.835Z,6.90
2023-02-05T11:36:04.315Z,4.83
2023-02-05T11:38:43.428Z,6.87
2023-02-05T11:41:14.169Z,8.10
2023-02-05T11:43:51.563Z,6.53
2023-02-05T11:46:22.624Z,8.30
2023-02-05T11:49:00.255Z,6.03
2023-02-05T11:51:49.622Z,5.03
2023-02-05T11:54:34.470Z,7.27
2023-02-05T11:57:19.858Z,7.27
2023-02-05T12:00:19.522Z,5.53
2023-02-05T12:02:51.380Z,4.27
2023-02-05T12:05:26.949Z,7.60
2023-02-05T12:08:15.556Z,6.77
2023-02-05T12:10:45.855Z,10.40
2023-02-05T12:13:46.642Z,7.20
2023-02-05T12:16:26.366Z,5.80
2023-02-05T12:19:16.659Z,8.57
2023-02-05T12:22:10.751Z,7.53
2023-02-05T12:24:37.894Z,5.33
2023-02-05T12:27:46.383Z,5.53
2023-02-05T12:30:38.312Z,5.87
2023-02-05T12:33:18.050Z,8.13
2023-02-05T12:35:53.813Z,7.73
2023-02-05T12:38:48.647Z,9.30
2023-02-05T12:41:48.047Z,9.50
2023-02-05T12:44:33.747Z,7.93
2023-02-05T12:47:31.329Z,7.37
2023-02-05T12:50:49.299Z,6.00
2023-02-05T12:53:27.004Z,12.23
2023-02-05T12:56:17.937Z,8.77
2023-02-05T12:58:55.661Z,10.70
2023-02-05T13:01:52.614Z,6.93
2023-02-05T13:04:29.765Z,8.67
2023-02-05T13:07:32.162Z,12.60
2023-02-05T13:10:04.406Z,11.03
2023-02-05T13:12:37.292Z,9.63
2023-02-05T13:15:19.362Z,9.03
2023-02-05T13:18:04.416Z,10.23
2023-02-05T13:20:58.044Z,9.13
2023-02-05T13:23:44.583Z,10.87
2023-02-05T13:26:24.361Z,10.77
2023-02-05T13:28:57.742Z,8.93
2023-02-05T13:31:33.199Z,7.30
2023-02-05T13:34:05.987Z,9.57
2023-02-05T13:36:55.052Z,10.03
2023-02-05T13:39:34.575Z,11.30
2023-02-05T13:42:07.865Z,13.13
2023-02-05T13:45:01.944Z,14.37
2023-02-05T13:48:01.053Z,13.70
2023-02-05T13:50:46.816Z,15.27
2023-02-05T13:53:16.734Z,10.77
2023-02-05T13:56:18.092Z,17.57
2023-02-05T13:58:58.269Z,13.17
2023-02-05T14:01:38.547Z,16.27
2023-02-05T14:04:16.632Z,21.93
2023-02-05T14:06:48.745Z,19.57
2023-02-05T14:09:41.693Z,16.03
2023-02-05T14:12:21.170Z,10.63
2023-02-05T14:15:17.250Z,21.33
2023-02-05T14:17:44.727Z,13.00
2023-02-05T14:20:34.210Z,12.30
2023-02-05T14:23:03.589Z,12.47
2023-02-05T14:25:41.358Z,10.50
2023-02-05T14:28:29.702Z,11.40
2023-02-05T14:30:58.733Z,12.70
2023-02-05T14:33:36.784Z,14.00
2023-02-05T14:36:24.233Z,15.10
2023-02-05T14:38:56.357Z,11.47
2023-02-05T14:41:25.110Z,12.37
2023-02-05T14:44:00.425Z,12.17
2023-02-05T14:46:39.768Z,12.80
2023-02-05T14:49:23.593Z,12.33
2023-02-05T14:52:46.157Z,16.90
2023-02-05T14:55:13.285Z,14.97
2023-02-05T14:57:51.622Z,16.00
2023-02-05T15:00:37.734Z,14.10
2023-02-05T15:03:04.875Z,17.30
2023-02-05T15:05:42.400Z,13.23
2023-02-05T15:08:15.813Z,15.87
2023-02-05T15:11:13.074Z,14.43
2023-02-05T15:13:40.735Z,13.90
2023-02-05T15:16:17.271Z,16.93
2023-02-05T15:18:49.250Z,18.03
2023-02-05T15:21:23.285Z,15.67
2023-02-05T15:24:16.060Z,15.03
2023-02-05T15:26:56.940Z,14.53
2023-02-05T15:29:27.395Z,13.40
2023-02-05T15:31:58.482Z,15.30
2023-02-05T15:34:42.647Z,14.23
2023-02-05T15:37:09.761Z,18.93
2023-02-05T15:39:54.261Z,15.93
2023-02-05T15:42:36.459Z,15.20
2023-02-05T15:45:39.721Z,12.80
2023-02-05T15:48:09.916Z,19.57
2023-02-05T15:51:22.707Z,20.63
2023-02-05T15:53:51.493Z,18.07
2023-02-05T15:56:52.015Z,14.53
2023-02-05T15:59:29.373Z,18.17
2023-02-05T16:02:08.422Z,17.50
2023-02-05T16:04:38.105Z,20.83
2023-02-05T16:07:41.445Z,14.33
2023-02-05T16:10:18.023Z,15.37
2023-02-05T16:13:25.610Z,23.50
2023-02-05T16:16:05.458Z,14.53
2023-02-05T16:19:03.018Z,17.37
2023-02-05T16:21:42.153Z,21.90
2023-02-05T16:24:21.040Z,18.03
2023-02-05T16:26:57.779Z,18.60
2023-02-05T16:29:39.063Z,19.03
2023-02-05T16:32:38.733Z,15.93
2023-02-05T16:35:28.171Z,19.30
2023-02-05T16:37:56.344Z,16.07
2023-02-05T16:40:37.682Z,17.30
2023-02-05T16:43:17.439Z,15.83
2023-02-05T16:46:08.936Z,18.13
2023-02-05T16:48:46.704Z,19.77
2023-02-05T16:51:35.684Z,20.43
2023-02-05T16:54:29.666Z,18.43
2023-02-05T16:57:06.121Z,17.83
2023-02-05T16:59:55.426Z,15.17
2023-02-05T17:02:41.888Z,18.90
2023-02-05T17:05:23.476Z,17.87
2023-02-05T17:08:06.699Z,16.73
2023-02-05T17:11:07.176Z,15.87
2023-02-05T17:13:45.590Z,17.80
2023-02-05T17:16:28.117Z,16.17
2023-02-05T17:19:06.798Z,15.60
2023-02-05T17:21:38.086Z,17.80
2023-02-05T17:24:09.196Z,18.90
2023-02-05T17:26:40.749Z,15.80
2023-02-05T17:29:13.719Z,20.87
2023-02-05T17:31:40.969Z,17.83
2023-02-05T17:34:08.142Z,15.90
2023-02-05T17:36:35.372Z,19.73
2023-02-05T17:39:02.620Z,15.83
2023-02-05T17:41:54.430Z,15.83
2023-02-05T17:44:21.753Z,17.63
2023-02-05T17:46:49.488Z,21.87
2023-02-05T17:49:16.655Z,17.53
2023-02-05T17:51:43.852Z,17.77
2023-02-05T17:54:13.383Z,16.07
2023-02-05T17:56:42.187Z,18.47
2023-02-05T17:59:15.000Z,19.40
2023-02-05T18:01:42.298Z,19.90
2023-02-05T18:04:09.511Z,23.90
2023-02-05T18:06:38.465Z,20.73
2023-02-05T18:09:06.008Z,19.93
2023-02-05T18:11:33.734Z,21.43
2023-02-05T18:14:01.136Z,23.53
2023-02-05T18:16:28.539Z,22.43
2023-02-05T18:18:55.768Z,20.73
2023-02-05T18:21:24.442Z,20.43
2023-02-05T18:23:55.079Z,23.47
2023-02-05T18:26:22.578Z,22.10
2023-02-05T18:28:51.213Z,19.57
2023-02-05T18:31:18.584Z,21.13
2023-02-05T18:33:48.312Z,23.80
2023-02-05T18:36:15.899Z,23.43
2023-02-05T18:38:43.741Z,22.50
2023-02-05T18:41:16.373Z,24.67
2023-02-05T18:43:44.142Z,22.57
2023-02-05T18:46:16.775Z,23.70
2023-02-05T18:48:45.634Z,20.97
2023-02-05T18:51:14.723Z,20.90
2023-02-05T18:53:43.373Z,20.13
2023-02-05T18:56:23.409Z,21.80
2023-02-05T18:58:59.288Z,19.07
2023-02-05T19:01:29.346Z,14.63
2023-02-05T19:04:01.412Z,19.03
2023-02-05T19:06:28.822Z,19.73
2023-02-05T19:08:58.493Z,18.63
2023-02-05T19:11:27.176Z,16.43
2023-02-05T19:14:04.294Z,19.47
2023-02-05T19:16:33.529Z,24.73
2023-02-05T19:19:01.320Z,21.47
2023-02-05T19:21:30.807Z,19.43
2023-02-05T19:24:05.234Z,20.37
2023-02-05T19:26:34.566Z,21.37
2023-02-05T19:29:06.046Z,25.20
2023-02-05T19:31:35.891Z,24.97
2023-02-05T19:34:03.835Z,25.03
2023-02-05T19:36:31.452Z,28.67
2023-02-05T19:39:04.123Z,22.73
2023-02-05T19:41:34.095Z,23.40
2023-02-05T19:44:04.715Z,25.60
2023-02-05T19:46:36.668Z,23.67
2023-02-05T19:49:06.830Z,21.30
2023-02-05T19:51:34.537Z,24.60
2023-02-05T19:54:06.656Z,27.20
2023-02-05T19:56:37.708Z,21.33
2023-02-05T19:59:06.010Z,21.53
2023-02-05T20:01:38.425Z,20.23
2023-02-05T20:04:17.599Z,19.10
2023-02-05T20:06:46.905Z,17.17
2023-02-05T20:09:16.501Z,17.40
2023-02-05T20:11:47.648Z,15.73
2023-02-05T20:14:16.547Z,16.83
2023-02-05T20:16:45.084Z,16.50
2023-02-05T20:19:14.355Z,21.93
2023-02-05T20:21:42.422Z,16.40
2023-02-05T20:24:09.721Z,17.50
2023-02-05T20:26:37.751Z,16.57
2023-02-05T20:29:23.675Z,18.27
2023-02-05T20:31:52.393Z,18.77
2023-02-05T20:34:22.696Z,17.33
2023-02-05T20:36:51.816Z,20.47
2023-02-05T20:39:20.637Z,17.87
2023-02-05T20:41:50.503Z,18.37
2023-02-05T20:44:18.697Z,19.63
2023-02-05T20:46:46.298Z,18.23
2023-02-05T20:49:14.641Z,17.67
2023-02-05T20:51:43.085Z,18.63
2023-02-05T20:54:10.423Z,20.07
2023-02-05T20:56:37.975Z,17.87
2023-02-05T20:59:07.261Z,17.97
2023-02-05T21:01:36.712Z,19.43
2023-02-05T21:04:05.579Z,20.27
2023-02-05T21:06:36.566Z,19.73
2023-02-05T21:09:04.784Z,16.80
2023-02-05T21:11:32.284Z,17.50
2023-02-05T21:13:59.922Z,15.03
2023-02-05T21:16:27.896Z,13.03
2023-02-05T21:18:55.777Z,11.30
2023-02-05T21:21:26.028Z,10.53
2023-02-05T21:23:58.097Z,10.03
2023-02-05T21:26:28.176Z,11.23
2023-02-05T21:29:00.782Z,10.87
2023-02-05T21:31:34.063Z,11.77
2023-02-05T21:34:07.079Z,9.53
2023-02-05T21:36:34.933Z,7.87
2023-02-05T21:39:02.202Z,9.23
2023-02-05T21:41:29.513Z,8.23
2023-02-05T21:43:59.534Z,8.93
2023-02-05T21:46:32.172Z,9.70
2023-02-05T21:49:00.424Z,9.60
2023-02-05T21:51:34.518Z,9.80
2023-02-05T21:54:05.073Z,9.90
2023-02-05T21:56:35.233Z,9.40
2023-02-05T21:59:02.904Z,10.10
2023-02-05T22:01:32.721Z,10.37
2023-02-05T22:04:06.986Z,9.33
2023-02-05T22:06:35.666Z,12.53
2023-02-05T22:09:05.413Z,10.97
2023-02-05T22:11:33.502Z,10.17
2023-02-05T22:14:01.126Z,10.33
2023-02-05T22:16:33.325Z,10.63
2023-02-05T22:19:01.798Z,10.37
2023-02-05T22:21:31.983Z,9.67
2023-02-05T22:24:00.821Z,9.97
2023-02-05T22:26:31.348Z,11.60
2023-02-05T22:28:59.923Z,10.90
2023-02-05T22:31:28.779Z,8.17
2023-02-05T22:33:57.140Z,8.60
2023-02-05T22:36:27.853Z,8.27
2023-02-05T22:38:55.424Z,9.13
2023-02-05T22:41:25.545Z,8.73
2023-02-05T22:43:54.415Z,8.40
2023-02-05T22:46:24.371Z,8.30
2023-02-05T22:48:52.630Z,10.20
2023-02-05T22:51:24.478Z,8.93
2023-02-05T22:53:55.767Z,9.20
2023-02-05T22:56:23.733Z,9.43
2023-02-05T22:58:52.472Z,10.53
2023-02-05T23:01:24.133Z,9.60
2023-02-05T23:03:51.958Z,10.87
2023-02-05T23:06:21.179Z,9.93
2023-02-05T23:08:53.209Z,9.60
2023-02-05T23:11:21.441Z,10.27
2023-02-05T23:13:49.379Z,8.60
2023-02-05T23:16:28.177Z,8.77
2023-02-05T23:19:02.157Z,8.20
2023-02-05T23:21:31.083Z,10.07
2023-02-05T23:23:58.564Z,8.80
2023-02-05T23:26:32.028Z,9.37
2023-02-05T23:28:59.773Z,9.53
2023-02-05T23:31:27.919Z,9.63
2023-02-05T23:33:55.708Z,11.30
2023-02-05T23:36:23.232Z,9.23
2023-02-05T23:38:50.762Z,9.13
2023-02-05T23:41:35.247Z,10.97
2023-02-05T23:44:13.206Z,9.93
2023-02-05T23:46:41.802Z,9.67
2023-02-05T23:49:09.881Z,10.03
2023-02-05T23:51:37.506Z,9.30
2023-02-05T23:54:06.276Z,10.33
2023-02-05T23:56:34.002Z,10.70
2023-02-05T23:59:01.592Z,11.37
